createdAt,value
2022-07-26T00:01:18.474Z,18.04
2022-07-26T00:03:45.811Z,18.00
2022-07-26T00:06:12.516Z,17.94
2022-07-26T00:08:39.630Z,17.84
2022-07-26T00:11:07.216Z,17.85
2022-07-26T00:13:34.935Z,17.85
2022-07-26T00:16:02.206Z,17.81
2022-07-26T00:18:28.906Z,17.75
2022-07-26T00:20:55.805Z,17.69
2022-07-26T00:23:22.931Z,17.73
2022-07-26T00:25:49.959Z,17.77
2022-07-26T00:28:16.872Z,17.69
2022-07-26T00:30:44.755Z,17.61
2022-07-26T00:33:11.526Z,17.70
2022-07-26T00:35:38.302Z,17.67
2022-07-26T00:38:05.092Z,17.61
2022-07-26T00:40:32.044Z,17.52
2022-07-26T00:42:58.817Z,17.63
2022-07-26T00:45:25.718Z,17.55
2022-07-26T00:47:52.634Z,17.56
2022-07-26T00:50:20.362Z,17.51
2022-07-26T00:52:49.173Z,17.50
2022-07-26T00:55:17.275Z,17.59
2022-07-26T00:57:44.500Z,17.54
2022-07-26T01:00:26.457Z,17.53
2022-07-26T01:02:54.887Z,17.58
2022-07-26T01:05:23.089Z,17.49
2022-07-26T01:07:49.995Z,17.39
2022-07-26T01:10:16.791Z,17.44
2022-07-26T01:12:44.832Z,17.46
2022-07-26T01:15:13.868Z,17.41
2022-07-26T01:17:41.665Z,17.40
2022-07-26T01:20:10.774Z,17.38
2022-07-26T01:22:37.835Z,17.40
2022-07-26T01:25:05.333Z,17.44
2022-07-26T01:27:34.463Z,17.39
2022-07-26T01:30:01.211Z,17.38
2022-07-26T01:32:27.985Z,17.41
2022-07-26T01:34:54.668Z,17.41
2022-07-26T01:37:21.544Z,17.45
2022-07-26T01:39:48.271Z,17.46
2022-07-26T01:42:15.005Z,17.43
2022-07-26T01:44:41.673Z,17.45
2022-07-26T01:47:08.469Z,17.44
2022-07-26T01:49:35.298Z,17.46
2022-07-26T01:52:02.094Z,17.44
2022-07-26T01:54:28.876Z,17.51
2022-07-26T01:56:55.836Z,17.43
2022-07-26T01:59:22.677Z,17.43
2022-07-26T02:01:49.513Z,17.41
2022-07-26T02:04:34.844Z,17.41
2022-07-26T02:07:05.340Z,17.43
2022-07-26T02:09:38.181Z,17.37
2022-07-26T02:12:07.184Z,17.31
2022-07-26T02:14:33.954Z,17.26
2022-07-26T02:17:00.766Z,17.26
2022-07-26T02:19:28.800Z,17.22
2022-07-26T02:21:55.746Z,17.18
2022-07-26T02:24:22.700Z,17.14
2022-07-26T02:26:49.411Z,17.17
2022-07-26T02:29:16.287Z,17.18
2022-07-26T02:31:43.111Z,17.21
2022-07-26T02:34:16.124Z,17.16
2022-07-26T02:36:43.544Z,17.15
2022-07-26T02:39:10.636Z,17.09
2022-07-26T02:41:37.349Z,17.09
2022-07-26T02:44:06.237Z,17.05
2022-07-26T02:46:33.271Z,17.04
2022-07-26T02:49:00.856Z,17.04
2022-07-26T02:51:27.927Z,17.00
2022-07-26T02:53:54.970Z,17.01
2022-07-26T02:56:21.727Z,16.91
2022-07-26T02:58:48.472Z,16.88
2022-07-26T03:01:15.291Z,16.96
2022-07-26T03:03:44.820Z,16.87
2022-07-26T03:06:14.164Z,16.81
2022-07-26T03:08:41.007Z,16.75
2022-07-26T03:11:11.905Z,16.75
2022-07-26T03:13:39.131Z,16.73
2022-07-26T03:16:07.598Z,16.75
2022-07-26T03:18:34.636Z,16.75
2022-07-26T03:21:01.326Z,16.72
2022-07-26T03:23:28.205Z,16.74
2022-07-26T03:25:54.914Z,16.74
2022-07-26T03:28:21.646Z,16.76
2022-07-26T03:30:48.394Z,16.70
2022-07-26T03:33:15.184Z,16.71
2022-07-26T03:35:41.916Z,16.73
2022-07-26T03:38:08.581Z,16.74
2022-07-26T03:40:35.294Z,16.70
2022-07-26T03:43:02.142Z,16.69
2022-07-26T03:45:29.848Z,16.72
2022-07-26T03:47:56.700Z,16.72
2022-07-26T03:50:23.397Z,16.70
2022-07-26T03:52:50.218Z,16.70
2022-07-26T03:55:35.549Z,16.75
2022-07-26T03:58:02.281Z,16.67
2022-07-26T04:00:29.006Z,16.74
2022-07-26T04:02:55.938Z,16.74
2022-07-26T04:05:23.592Z,16.77
2022-07-26T04:07:53.738Z,16.80
2022-07-26T04:10:21.887Z,16.79
2022-07-26T04:12:49.794Z,16.74
2022-07-26T04:15:18.836Z,16.76
2022-07-26T04:17:45.745Z,16.84
2022-07-26T04:20:12.960Z,16.89
2022-07-26T04:22:40.757Z,16.90
2022-07-26T04:25:09.841Z,16.95
2022-07-26T04:27:37.246Z,17.00
2022-07-26T04:30:14.089Z,17.05
2022-07-26T04:32:42.041Z,17.05
2022-07-26T04:35:09.496Z,17.14
2022-07-26T04:37:43.647Z,17.19
2022-07-26T04:40:16.586Z,17.21
2022-07-26T04:42:43.370Z,17.26
2022-07-26T04:45:12.120Z,17.37
2022-07-26T04:47:47.465Z,17.43
2022-07-26T04:50:16.641Z,17.37
2022-07-26T04:52:43.480Z,17.47
2022-07-26T04:55:11.117Z,17.51
2022-07-26T04:57:37.843Z,17.69
2022-07-26T05:00:23.260Z,17.74
2022-07-26T05:02:53.236Z,17.76
2022-07-26T05:05:20.817Z,17.75
2022-07-26T05:07:49.774Z,17.84
2022-07-26T05:10:17.876Z,17.96
2022-07-26T05:12:46.545Z,17.96
2022-07-26T05:15:14.574Z,18.11
2022-07-26T05:17:43.424Z,18.13
2022-07-26T05:20:15.988Z,18.25
2022-07-26T05:22:43.182Z,18.29
2022-07-26T05:25:10.005Z,18.25
2022-07-26T05:27:37.323Z,18.28
2022-07-26T05:30:04.289Z,18.55
2022-07-26T05:32:31.007Z,18.55
2022-07-26T05:34:57.837Z,18.57
2022-07-26T05:37:24.512Z,18.53
2022-07-26T05:39:51.356Z,18.50
2022-07-26T05:42:18.146Z,18.52
2022-07-26T05:44:44.898Z,18.59
2022-07-26T05:47:11.941Z,18.67
2022-07-26T05:49:40.100Z,18.59
2022-07-26T05:52:07.935Z,18.76
2022-07-26T05:54:35.423Z,18.69
2022-07-26T05:57:02.684Z,19.01
2022-07-26T05:59:29.590Z,19.66
2022-07-26T06:01:56.625Z,19.51
2022-07-26T06:04:26.047Z,20.19
2022-07-26T06:06:54.994Z,19.91
2022-07-26T06:09:24.754Z,20.30
2022-07-26T06:11:51.841Z,20.60
2022-07-26T06:14:19.683Z,20.44
2022-07-26T06:16:47.427Z,20.58
2022-07-26T06:19:14.312Z,20.49
2022-07-26T06:21:42.303Z,20.06
2022-07-26T06:24:09.639Z,20.33
2022-07-26T06:26:36.889Z,20.33
2022-07-26T06:29:04.051Z,20.45
2022-07-26T06:31:30.816Z,20.20
2022-07-26T06:33:57.724Z,19.82
2022-07-26T06:36:29.990Z,20.01
2022-07-26T06:38:58.107Z,20.48
2022-07-26T06:41:24.912Z,20.98
2022-07-26T06:43:51.815Z,21.13
2022-07-26T06:46:21.571Z,20.64
2022-07-26T06:48:52.724Z,21.33
2022-07-26T06:51:23.705Z,21.36
2022-07-26T06:53:50.664Z,21.42
2022-07-26T06:56:18.359Z,21.87
2022-07-26T06:58:45.645Z,21.91
2022-07-26T07:01:12.983Z,22.47
2022-07-26T07:03:59.675Z,21.88
2022-07-26T07:06:26.326Z,21.49
2022-07-26T07:08:53.260Z,21.52
2022-07-26T07:11:20.290Z,21.80
2022-07-26T07:13:47.196Z,22.20
2022-07-26T07:16:13.969Z,21.93
2022-07-26T07:18:40.783Z,22.20
2022-07-26T07:21:07.515Z,22.03
2022-07-26T07:23:34.437Z,22.05
2022-07-26T07:26:01.114Z,22.01
2022-07-26T07:28:27.862Z,21.99
2022-07-26T07:30:54.638Z,21.44
2022-07-26T07:33:22.308Z,21.33
2022-07-26T07:35:50.983Z,21.51
2022-07-26T07:38:18.373Z,21.34
2022-07-26T07:40:45.964Z,21.40
2022-07-26T07:43:12.700Z,21.60
2022-07-26T07:45:39.411Z,21.63
2022-07-26T07:48:06.477Z,21.28
2022-07-26T07:50:33.392Z,22.34
2022-07-26T07:53:00.836Z,22.37
2022-07-26T07:55:41.195Z,21.60
2022-07-26T07:58:10.421Z,21.68
2022-07-26T08:00:37.645Z,21.37
2022-07-26T08:03:05.253Z,21.17
2022-07-26T08:05:32.028Z,20.94
2022-07-26T08:07:58.770Z,21.06
2022-07-26T08:10:26.091Z,20.62
2022-07-26T08:12:52.873Z,20.17
2022-07-26T08:15:19.794Z,19.96
2022-07-26T08:17:51.314Z,19.39
2022-07-26T08:20:23.656Z,19.23
2022-07-26T08:22:52.477Z,19.03
2022-07-26T08:25:19.977Z,19.02
2022-07-26T08:28:00.493Z,18.57
2022-07-26T08:30:30.660Z,18.41
2022-07-26T08:32:57.555Z,18.44
2022-07-26T08:35:24.492Z,18.46
2022-07-26T08:37:51.209Z,18.29
2022-07-26T08:40:18.257Z,18.11
2022-07-26T08:42:57.180Z,18.11
2022-07-26T08:45:26.329Z,18.07
2022-07-26T08:48:15.993Z,18.12
2022-07-26T08:50:40.870Z,18.26
2022-07-26T08:53:09.436Z,18.42
2022-07-26T08:56:04.453Z,18.26
2022-07-26T08:58:24.048Z,18.34
2022-07-26T09:01:13.284Z,18.47
2022-07-26T09:03:44.209Z,18.40
2022-07-26T09:06:21.987Z,18.67
2022-07-26T09:08:51.103Z,18.84
2022-07-26T09:11:30.517Z,18.84
2022-07-26T09:14:02.457Z,18.86
2022-07-26T09:16:30.358Z,18.77
2022-07-26T09:19:17.649Z,18.87
2022-07-26T09:21:45.395Z,18.97
2022-07-26T09:24:12.445Z,18.99
2022-07-26T09:26:39.492Z,18.96
2022-07-26T09:29:12.242Z,19.29
2022-07-26T09:31:39.844Z,19.43
2022-07-26T09:34:07.931Z,20.01
2022-07-26T09:36:51.171Z,21.08
2022-07-26T09:39:33.681Z,20.44
2022-07-26T09:42:27.529Z,21.14
2022-07-26T09:44:59.236Z,20.85
2022-07-26T09:47:37.052Z,21.11
2022-07-26T09:50:16.458Z,21.66
2022-07-26T09:53:07.275Z,21.18
2022-07-26T09:55:46.291Z,21.35
2022-07-26T09:58:14.960Z,22.23
2022-07-26T10:00:42.818Z,21.85
2022-07-26T10:03:09.986Z,21.66
2022-07-26T10:05:37.730Z,21.40
2022-07-26T10:08:05.213Z,20.90
2022-07-26T10:10:37.093Z,21.10
2022-07-26T10:13:04.299Z,21.75
2022-07-26T10:15:51.596Z,21.50
2022-07-26T10:18:36.709Z,20.99
2022-07-26T10:21:29.431Z,20.87
2022-07-26T10:23:58.562Z,20.85
2022-07-26T10:26:31.252Z,20.56
2022-07-26T10:29:16.645Z,20.68
2022-07-26T10:31:45.186Z,20.75
2022-07-26T10:34:33.101Z,21.05
2022-07-26T10:37:02.980Z,21.06
2022-07-26T10:39:29.784Z,21.01
2022-07-26T10:42:05.929Z,21.37
2022-07-26T10:44:35.216Z,21.58
2022-07-26T10:47:11.299Z,21.00
2022-07-26T10:49:55.522Z,20.89
2022-07-26T10:52:27.034Z,20.50
2022-07-26T10:54:56.812Z,20.29
2022-07-26T10:57:29.469Z,20.19
2022-07-26T11:00:00.284Z,20.22
2022-07-26T11:02:32.628Z,19.97
2022-07-26T11:05:13.219Z,20.12
2022-07-26T11:08:05.206Z,20.13
2022-07-26T11:10:38.874Z,20.09
2022-07-26T11:13:06.860Z,19.98
2022-07-26T11:15:34.532Z,19.92
2022-07-26T11:18:13.250Z,20.02
2022-07-26T11:20:40.821Z,20.39
2022-07-26T11:23:24.470Z,20.92
2022-07-26T11:26:08.255Z,21.35
2022-07-26T11:28:59.057Z,21.49
2022-07-26T11:31:50.582Z,21.10
2022-07-26T11:34:29.628Z,22.06
2022-07-26T11:36:58.970Z,21.40
2022-07-26T11:39:28.585Z,21.19
2022-07-26T11:42:10.168Z,21.15
2022-07-26T11:44:37.428Z,21.76
2022-07-26T11:47:15.942Z,22.19
2022-07-26T11:50:00.818Z,21.51
2022-07-26T11:52:31.662Z,22.27
2022-07-26T11:54:59.600Z,22.26
2022-07-26T11:57:31.999Z,22.13
2022-07-26T12:00:00.516Z,22.38
2022-07-26T12:02:28.624Z,22.16
2022-07-26T12:05:16.451Z,22.99
2022-07-26T12:07:53.473Z,24.01
2022-07-26T12:10:20.325Z,23.87
2022-07-26T12:12:47.141Z,23.15
2022-07-26T12:15:15.607Z,23.10
2022-07-26T12:17:59.029Z,22.47
2022-07-26T12:20:28.089Z,22.72
2022-07-26T12:23:06.099Z,23.43
2022-07-26T12:25:33.731Z,23.92
2022-07-26T12:28:00.492Z,24.00
2022-07-26T12:30:30.661Z,23.88
2022-07-26T12:33:02.164Z,23.27
2022-07-26T12:35:33.638Z,22.94
2022-07-26T12:38:00.639Z,23.50
2022-07-26T12:40:29.871Z,23.85
2022-07-26T12:43:03.120Z,23.87
2022-07-26T12:45:32.944Z,24.72
2022-07-26T12:48:02.349Z,24.88
2022-07-26T12:50:31.547Z,24.90
2022-07-26T12:53:09.178Z,25.30
2022-07-26T12:55:39.480Z,24.16
2022-07-26T12:58:06.411Z,23.69
2022-07-26T13:00:33.121Z,24.59
2022-07-26T13:02:59.868Z,24.99
2022-07-26T13:05:26.884Z,25.44
2022-07-26T13:07:54.271Z,25.69
2022-07-26T13:10:36.692Z,25.95
2022-07-26T13:13:05.011Z,25.93
2022-07-26T13:15:37.405Z,25.40
2022-07-26T13:18:09.040Z,25.28
2022-07-26T13:20:39.515Z,25.63
2022-07-26T13:23:12.704Z,25.91
2022-07-26T13:25:40.935Z,25.45
2022-07-26T13:28:08.748Z,26.35
2022-07-26T13:30:39.368Z,25.79
2022-07-26T13:33:06.762Z,26.09
2022-07-26T13:35:33.579Z,25.76
2022-07-26T13:38:00.595Z,25.82
2022-07-26T13:40:31.651Z,26.25
2022-07-26T13:42:59.063Z,25.78
2022-07-26T13:45:33.815Z,26.13
2022-07-26T13:48:00.746Z,26.58
2022-07-26T13:50:28.427Z,27.57
2022-07-26T13:52:56.563Z,26.66
2022-07-26T13:55:24.313Z,26.35
2022-07-26T13:57:56.669Z,26.39
2022-07-26T14:00:28.846Z,26.16
2022-07-26T14:02:57.859Z,26.10
2022-07-26T14:05:26.710Z,25.36
2022-07-26T14:07:54.011Z,26.16
2022-07-26T14:10:22.304Z,25.56
2022-07-26T14:12:49.909Z,25.37
2022-07-26T14:15:22.085Z,25.92
2022-07-26T14:17:53.074Z,25.54
2022-07-26T14:20:20.940Z,25.71
2022-07-26T14:22:48.255Z,25.80
2022-07-26T14:25:15.130Z,26.19
2022-07-26T14:27:42.009Z,25.59
2022-07-26T14:30:09.185Z,26.03
2022-07-26T14:32:36.334Z,25.77
2022-07-26T14:35:04.030Z,25.95
2022-07-26T14:37:42.546Z,25.04
2022-07-26T14:40:17.080Z,25.39
2022-07-26T14:42:45.179Z,25.16
2022-07-26T14:45:13.295Z,24.36
2022-07-26T14:47:40.143Z,23.61
2022-07-26T14:50:08.418Z,23.94
2022-07-26T14:52:40.570Z,24.15
2022-07-26T14:55:07.994Z,24.03
2022-07-26T14:57:34.986Z,23.60
2022-07-26T15:00:11.789Z,23.54
2022-07-26T15:02:46.401Z,22.99
2022-07-26T15:05:14.081Z,22.44
2022-07-26T15:07:41.597Z,22.33
2022-07-26T15:10:10.842Z,22.03
2022-07-26T15:12:38.004Z,21.62
2022-07-26T15:15:06.381Z,21.59
2022-07-26T15:17:33.665Z,21.64
2022-07-26T15:20:00.781Z,21.42
2022-07-26T15:22:27.990Z,21.34
2022-07-26T15:24:54.854Z,21.13
2022-07-26T15:27:21.771Z,21.04
2022-07-26T15:29:50.691Z,21.07
2022-07-26T15:32:17.607Z,21.07
2022-07-26T15:34:44.425Z,21.11
2022-07-26T15:37:11.438Z,21.39
2022-07-26T15:39:38.390Z,21.46
2022-07-26T15:42:07.902Z,21.01
2022-07-26T15:44:38.417Z,20.77
2022-07-26T15:47:06.396Z,20.68
2022-07-26T15:49:34.151Z,20.77
2022-07-26T15:52:10.622Z,20.62
2022-07-26T15:54:37.905Z,20.81
2022-07-26T15:57:04.847Z,20.71
2022-07-26T15:59:31.941Z,20.98
2022-07-26T16:01:58.902Z,21.05
2022-07-26T16:04:25.804Z,21.02
2022-07-26T16:06:52.528Z,20.93
2022-07-26T16:09:20.033Z,20.86
2022-07-26T16:11:48.267Z,20.66
2022-07-26T16:14:16.615Z,20.36
2022-07-26T16:16:44.237Z,20.19
2022-07-26T16:19:11.964Z,20.41
2022-07-26T16:21:40.397Z,20.69
2022-07-26T16:24:08.023Z,20.87
2022-07-26T16:26:35.926Z,20.61
2022-07-26T16:29:04.459Z,20.37
2022-07-26T16:31:32.586Z,20.39
2022-07-26T16:33:59.758Z,20.48
2022-07-26T16:36:26.490Z,20.75
2022-07-26T16:38:53.440Z,20.55
2022-07-26T16:41:20.203Z,20.48
2022-07-26T16:43:47.006Z,20.32
2022-07-26T16:46:13.850Z,20.44
2022-07-26T16:48:40.945Z,20.27
2022-07-26T16:51:07.862Z,20.27
2022-07-26T16:53:34.677Z,20.02
2022-07-26T16:56:01.487Z,19.85
2022-07-26T16:58:28.364Z,19.60
2022-07-26T17:00:55.171Z,19.67
2022-07-26T17:03:21.988Z,19.82
2022-07-26T17:05:48.734Z,19.94
2022-07-26T17:08:15.722Z,19.61
2022-07-26T17:10:44.472Z,19.18
2022-07-26T17:13:11.585Z,19.12
2022-07-26T17:15:38.733Z,19.07
2022-07-26T17:18:05.580Z,19.31
2022-07-26T17:20:32.317Z,19.52
2022-07-26T17:22:59.267Z,19.69
2022-07-26T17:25:25.981Z,19.28
2022-07-26T17:27:53.148Z,19.37
2022-07-26T17:30:19.929Z,19.31
2022-07-26T17:32:46.816Z,19.05
2022-07-26T17:35:13.962Z,18.93
2022-07-26T17:37:40.963Z,18.83
2022-07-26T17:40:08.889Z,18.71
2022-07-26T17:42:36.876Z,18.74
2022-07-26T17:45:05.467Z,18.65
2022-07-26T17:47:32.359Z,18.50
2022-07-26T17:50:26.337Z,18.55
2022-07-26T17:52:48.256Z,18.40
2022-07-26T17:55:15.540Z,18.48
2022-07-26T17:57:42.511Z,18.65
2022-07-26T18:00:10.181Z,18.69
2022-07-26T18:02:37.742Z,18.73
2022-07-26T18:05:04.921Z,18.68
2022-07-26T18:07:31.829Z,18.52
2022-07-26T18:09:58.683Z,18.76
2022-07-26T18:12:25.368Z,18.57
2022-07-26T18:14:52.262Z,18.46
2022-07-26T18:17:19.057Z,18.36
2022-07-26T18:19:45.862Z,18.58
2022-07-26T18:22:12.669Z,18.26
2022-07-26T18:24:39.694Z,18.36
2022-07-26T18:27:06.813Z,18.19
2022-07-26T18:29:33.670Z,17.87
2022-07-26T18:32:02.069Z,17.94
2022-07-26T18:34:29.012Z,18.08
2022-07-26T18:36:55.812Z,17.99
2022-07-26T18:39:22.665Z,17.80
2022-07-26T18:41:49.539Z,17.88
2022-07-26T18:44:16.254Z,17.87
2022-07-26T18:46:43.284Z,17.88
2022-07-26T18:49:19.842Z,17.87
2022-07-26T18:51:48.703Z,17.97
2022-07-26T18:54:16.158Z,17.93
2022-07-26T18:56:43.290Z,17.82
2022-07-26T18:59:10.500Z,17.84
2022-07-26T19:01:37.565Z,17.77
2022-07-26T19:04:07.170Z,17.83
2022-07-26T19:06:37.060Z,17.59
2022-07-26T19:09:05.559Z,17.60
2022-07-26T19:11:33.531Z,17.51
2022-07-26T19:14:04.581Z,17.47
2022-07-26T19:16:31.471Z,17.38
2022-07-26T19:18:58.604Z,17.21
2022-07-26T19:21:25.397Z,17.17
2022-07-26T19:23:52.165Z,17.08
2022-07-26T19:26:19.124Z,17.04
2022-07-26T19:28:46.632Z,16.99
2022-07-26T19:31:13.428Z,16.95
2022-07-26T19:33:40.336Z,16.98
2022-07-26T19:36:07.640Z,16.87
2022-07-26T19:38:34.902Z,16.77
2022-07-26T19:41:02.019Z,16.76
2022-07-26T19:43:28.925Z,16.70
2022-07-26T19:45:55.825Z,16.67
2022-07-26T19:48:22.687Z,16.66
2022-07-26T19:50:51.223Z,16.61
2022-07-26T19:53:18.212Z,16.46
2022-07-26T19:55:45.064Z,16.51
2022-07-26T19:58:12.005Z,16.41
2022-07-26T20:00:38.866Z,16.39
2022-07-26T20:03:05.885Z,16.35
2022-07-26T20:05:35.053Z,16.35
2022-07-26T20:08:02.488Z,16.26
2022-07-26T20:10:32.178Z,16.15
2022-07-26T20:12:59.861Z,16.18
2022-07-26T20:15:26.743Z,16.18
2022-07-26T20:17:53.543Z,16.08
2022-07-26T20:20:20.619Z,16.03
2022-07-26T20:22:47.744Z,15.96
2022-07-26T20:25:21.181Z,15.92
2022-07-26T20:27:51.230Z,16.01
2022-07-26T20:30:19.817Z,15.88
2022-07-26T20:32:46.785Z,15.87
2022-07-26T20:35:13.625Z,15.86
2022-07-26T20:37:41.586Z,15.69
2022-07-26T20:40:09.298Z,15.70
2022-07-26T20:42:38.394Z,15.68
2022-07-26T20:45:11.388Z,15.73
2022-07-26T20:47:43.035Z,15.69
2022-07-26T20:50:13.136Z,15.69
2022-07-26T20:52:39.903Z,15.67
2022-07-26T20:55:07.559Z,16.04
2022-07-26T20:57:34.792Z,15.62
2022-07-26T21:00:01.872Z,15.61
2022-07-26T21:02:28.629Z,15.66
2022-07-26T21:04:55.638Z,15.51
2022-07-26T21:07:22.466Z,15.47
2022-07-26T21:09:49.218Z,15.39
2022-07-26T21:12:16.053Z,15.29
2022-07-26T21:14:42.840Z,15.32
2022-07-26T21:17:12.127Z,15.27
2022-07-26T21:19:40.045Z,15.32
2022-07-26T21:22:07.807Z,15.28
2022-07-26T21:24:37.980Z,15.11
2022-07-26T21:27:05.650Z,15.03
2022-07-26T21:29:39.227Z,15.01
2022-07-26T21:32:06.762Z,14.93
2022-07-26T21:34:34.358Z,14.95
2022-07-26T21:37:01.922Z,14.87
2022-07-26T21:39:28.654Z,14.82
2022-07-26T21:41:55.394Z,14.91
2022-07-26T21:44:23.134Z,14.84
2022-07-26T21:46:52.663Z,14.74
2022-07-26T21:49:19.586Z,14.71
2022-07-26T21:51:46.413Z,14.75
2022-07-26T21:54:13.233Z,14.78
2022-07-26T21:56:39.972Z,14.72
2022-07-26T21:59:06.754Z,14.70
2022-07-26T22:01:33.639Z,14.60
2022-07-26T22:04:00.413Z,14.58
2022-07-26T22:06:27.173Z,14.43
2022-07-26T22:08:53.925Z,14.63
2022-07-26T22:11:20.728Z,14.56
2022-07-26T22:13:47.419Z,14.57
2022-07-26T22:16:14.329Z,14.58
2022-07-26T22:18:41.254Z,14.62
2022-07-26T22:21:08.334Z,14.65
2022-07-26T22:23:34.981Z,14.60
2022-07-26T22:26:04.170Z,14.62
2022-07-26T22:28:32.721Z,14.57
2022-07-26T22:31:00.377Z,14.62
2022-07-26T22:33:27.149Z,14.67
2022-07-26T22:35:53.889Z,14.62
2022-07-26T22:38:20.707Z,14.58
2022-07-26T22:40:47.428Z,14.55
2022-07-26T22:43:14.916Z,14.51
2022-07-26T22:45:42.221Z,14.54
2022-07-26T22:48:11.956Z,14.48
2022-07-26T22:50:38.807Z,14.48
2022-07-26T22:53:05.752Z,14.50
2022-07-26T22:55:32.799Z,14.51
2022-07-26T22:57:59.612Z,14.57
2022-07-26T23:00:26.371Z,14.56
2022-07-26T23:02:53.229Z,14.58
2022-07-26T23:05:20.217Z,14.56
2022-07-26T23:07:48.606Z,14.65
2022-07-26T23:10:16.278Z,14.59
2022-07-26T23:12:43.266Z,14.56
2022-07-26T23:15:10.601Z,14.63
2022-07-26T23:17:37.770Z,14.77
2022-07-26T23:20:06.492Z,14.86
2022-07-26T23:22:34.017Z,14.73
2022-07-26T23:25:00.736Z,14.73
2022-07-26T23:27:27.656Z,14.84
2022-07-26T23:29:55.759Z,14.81
2022-07-26T23:32:22.615Z,14.91
2022-07-26T23:34:49.356Z,14.91
2022-07-26T23:37:16.263Z,14.88
2022-07-26T23:39:42.995Z,14.96
2022-07-26T23:42:09.786Z,14.93
2022-07-26T23:44:36.507Z,14.97
2022-07-26T23:47:03.411Z,15.00
2022-07-26T23:49:30.355Z,15.04
2022-07-26T23:51:57.063Z,15.09
2022-07-26T23:54:23.838Z,15.13
2022-07-26T23:56:50.735Z,15.10
2022-07-26T23:59:17.741Z,15.14
